createdAt,value
2018-07-24T00:00:04.830Z,25.90
2018-07-24T00:02:33.468Z,25.87
2018-07-24T00:05:02.037Z,25.85
2018-07-24T00:07:30.673Z,25.82
2018-07-24T00:10:00.487Z,25.81
2018-07-24T00:12:29.529Z,25.78
2018-07-24T00:14:58.147Z,25.76
2018-07-24T00:17:26.787Z,25.74
2018-07-24T00:19:55.398Z,25.73
2018-07-24T00:22:24.011Z,25.71
2018-07-24T00:24:52.666Z,25.67
2018-07-24T00:27:21.251Z,25.67
2018-07-24T00:29:49.993Z,25.62
2018-07-24T00:32:18.584Z,25.59
2018-07-24T00:34:47.076Z,25.57
2018-07-24T00:37:15.749Z,25.52
2018-07-24T00:39:44.368Z,25.51
2018-07-24T00:42:12.819Z,25.49
2018-07-24T00:44:41.342Z,25.45
2018-07-24T00:47:09.811Z,25.44
2018-07-24T00:49:38.463Z,25.42
2018-07-24T00:52:07.211Z,25.40
2018-07-24T00:54:35.698Z,25.37
2018-07-24T00:57:04.267Z,25.33
2018-07-24T00:59:32.888Z,25.31
2018-07-24T01:02:01.496Z,25.27
2018-07-24T01:04:29.982Z,25.26
2018-07-24T01:06:58.607Z,25.23
2018-07-24T01:09:27.195Z,25.20
2018-07-24T01:11:55.753Z,25.18
2018-07-24T01:14:24.319Z,25.15
2018-07-24T01:16:52.847Z,25.09
2018-07-24T01:19:21.335Z,25.05
2018-07-24T01:21:49.927Z,25.01
2018-07-24T01:24:18.381Z,25.00
2018-07-24T01:26:46.955Z,24.98
2018-07-24T01:29:15.515Z,24.96
2018-07-24T01:31:44.051Z,24.96
2018-07-24T01:34:12.697Z,24.94
2018-07-24T01:36:41.201Z,24.93
2018-07-24T01:39:11.028Z,24.89
2018-07-24T01:41:39.764Z,24.87
2018-07-24T01:44:08.406Z,24.84
2018-07-24T01:46:36.881Z,24.80
2018-07-24T01:49:05.496Z,24.76
2018-07-24T01:51:34.153Z,24.72
2018-07-24T01:54:02.670Z,24.67
2018-07-24T01:56:31.272Z,24.64
2018-07-24T01:58:59.795Z,24.61
2018-07-24T02:01:28.382Z,24.60
2018-07-24T02:03:56.863Z,24.58
2018-07-24T02:06:25.403Z,24.55
2018-07-24T02:08:53.989Z,24.54
2018-07-24T02:11:22.656Z,24.51
2018-07-24T02:13:51.221Z,24.48
2018-07-24T02:16:19.788Z,24.43
2018-07-24T02:18:48.431Z,24.39
2018-07-24T02:21:16.966Z,24.37
2018-07-24T02:23:45.444Z,24.35
2018-07-24T02:26:14.035Z,24.33
2018-07-24T02:28:42.595Z,24.32
2018-07-24T02:31:11.202Z,24.31
2018-07-24T02:33:39.757Z,24.31
2018-07-24T02:36:08.372Z,24.29
2018-07-24T02:38:36.901Z,24.27
2018-07-24T02:41:05.528Z,24.27
2018-07-24T02:43:34.066Z,24.25
2018-07-24T02:46:02.552Z,24.23
2018-07-24T02:48:31.086Z,24.21
2018-07-24T02:50:59.654Z,24.20
2018-07-24T02:53:28.332Z,24.18
2018-07-24T02:55:56.917Z,24.15
2018-07-24T02:58:25.376Z,24.15
2018-07-24T03:00:53.976Z,24.13
2018-07-24T03:03:22.510Z,24.11
2018-07-24T03:05:51.055Z,24.10
2018-07-24T03:08:19.588Z,24.08
2018-07-24T03:10:48.628Z,24.05
2018-07-24T03:13:17.746Z,24.03
2018-07-24T03:15:46.281Z,24.02
2018-07-24T03:18:14.798Z,24.02
2018-07-24T03:20:43.284Z,23.99
2018-07-24T03:23:11.868Z,23.98
2018-07-24T03:25:42.289Z,23.96
2018-07-24T03:28:10.830Z,23.93
2018-07-24T03:30:39.362Z,23.91
2018-07-24T03:33:07.920Z,23.88
2018-07-24T03:35:36.404Z,23.84
2018-07-24T03:38:04.955Z,23.80
2018-07-24T03:40:33.395Z,23.80
2018-07-24T03:43:01.902Z,23.78
2018-07-24T03:45:30.463Z,23.77
2018-07-24T03:47:59.028Z,23.78
2018-07-24T03:50:27.564Z,23.76
2018-07-24T03:52:56.079Z,23.74
2018-07-24T03:55:24.555Z,23.73
2018-07-24T03:57:53.122Z,23.72
2018-07-24T04:00:21.715Z,23.74
2018-07-24T04:02:50.261Z,23.75
2018-07-24T04:05:18.914Z,23.75
2018-07-24T04:07:50.498Z,23.76
2018-07-24T04:10:20.119Z,23.76
2018-07-24T04:12:48.781Z,23.78
2018-07-24T04:15:17.886Z,23.77
2018-07-24T04:17:46.482Z,23.79
2018-07-24T04:20:14.977Z,23.79
2018-07-24T04:22:43.534Z,23.79
2018-07-24T04:25:12.057Z,23.80
2018-07-24T04:27:40.659Z,23.81
2018-07-24T04:30:09.390Z,23.80
2018-07-24T04:32:39.360Z,23.81
2018-07-24T04:35:07.960Z,23.82
2018-07-24T04:37:36.681Z,23.86
2018-07-24T04:40:05.700Z,23.88
2018-07-24T04:42:34.212Z,23.92
2018-07-24T04:45:02.790Z,23.95
2018-07-24T04:47:31.347Z,23.97
2018-07-24T04:49:59.857Z,24.00
2018-07-24T04:52:28.409Z,24.02
2018-07-24T04:54:56.975Z,24.02
2018-07-24T04:57:25.566Z,24.03
2018-07-24T04:59:54.249Z,24.08
2018-07-24T05:02:22.977Z,24.12
2018-07-24T05:04:51.580Z,24.18
2018-07-24T05:07:20.246Z,24.23
2018-07-24T05:09:48.828Z,24.27
2018-07-24T05:12:17.334Z,24.34
2018-07-24T05:14:45.837Z,24.39
2018-07-24T05:17:14.367Z,24.45
2018-07-24T05:19:43.515Z,24.51
2018-07-24T05:22:12.025Z,24.60
2018-07-24T05:24:40.586Z,24.67
2018-07-24T05:27:09.524Z,24.75
2018-07-24T05:29:38.046Z,24.84
2018-07-24T05:32:06.878Z,24.93
2018-07-24T05:34:35.439Z,25.02
2018-07-24T05:37:04.007Z,25.11
2018-07-24T05:39:32.746Z,25.18
2018-07-24T05:42:01.395Z,25.28
2018-07-24T05:44:30.365Z,25.32
2018-07-24T05:46:58.906Z,25.36
2018-07-24T05:49:27.567Z,25.40
2018-07-24T05:51:56.100Z,25.47
2018-07-24T05:54:25.035Z,25.65
2018-07-24T05:56:53.697Z,25.95
2018-07-24T05:59:22.523Z,26.44
2018-07-24T06:01:51.205Z,26.95
2018-07-24T06:04:19.886Z,27.48
2018-07-24T06:06:48.560Z,27.99
2018-07-24T06:09:17.194Z,28.52
2018-07-24T06:11:45.740Z,29.04
2018-07-24T06:14:14.339Z,29.51
2018-07-24T06:16:42.946Z,29.97
2018-07-24T06:19:11.495Z,30.42
2018-07-24T06:21:40.092Z,30.89
2018-07-24T06:24:09.029Z,31.33
2018-07-24T06:26:37.666Z,31.72
2018-07-24T06:29:06.193Z,32.12
2018-07-24T06:31:34.686Z,32.52
2018-07-24T06:34:03.247Z,32.93
2018-07-24T06:36:31.775Z,33.18
2018-07-24T06:39:00.380Z,33.40
2018-07-24T06:41:28.998Z,33.59
2018-07-24T06:43:57.484Z,33.84
2018-07-24T06:46:26.013Z,34.18
2018-07-24T06:48:54.506Z,34.47
2018-07-24T06:51:22.993Z,34.78
2018-07-24T06:53:51.500Z,35.12
2018-07-24T06:56:19.997Z,35.39
2018-07-24T06:58:48.500Z,35.82
2018-07-24T07:01:16.950Z,36.19
2018-07-24T07:03:45.399Z,36.58
2018-07-24T07:06:13.922Z,36.94
2018-07-24T07:08:42.402Z,37.30
2018-07-24T07:11:10.868Z,37.61
2018-07-24T07:13:39.323Z,38.02
2018-07-24T07:16:07.875Z,38.42
2018-07-24T07:18:36.387Z,38.73
2018-07-24T07:21:04.856Z,39.10
2018-07-24T07:23:33.442Z,39.50
2018-07-24T07:26:02.017Z,39.95
2018-07-24T07:28:30.531Z,40.27
2018-07-24T07:30:59.178Z,40.65
2018-07-24T07:33:27.675Z,41.04
2018-07-24T07:35:56.186Z,41.34
2018-07-24T07:38:24.880Z,41.68
2018-07-24T07:40:53.376Z,41.98
2018-07-24T07:43:21.899Z,42.38
2018-07-24T07:45:50.615Z,42.65
2018-07-24T07:48:19.071Z,43.01
2018-07-24T07:50:47.523Z,43.31
2018-07-24T07:53:16.145Z,43.61
2018-07-24T07:55:44.873Z,43.94
2018-07-24T07:58:13.587Z,44.24
2018-07-24T08:00:42.073Z,44.57
2018-07-24T08:03:10.598Z,44.92
2018-07-24T08:05:39.089Z,45.24
2018-07-24T08:08:07.592Z,45.54
2018-07-24T08:10:36.152Z,45.88
2018-07-24T08:13:04.689Z,46.17
2018-07-24T08:15:34.259Z,46.44
2018-07-24T08:18:02.892Z,46.68
2018-07-24T08:20:31.547Z,46.65
2018-07-24T08:23:00.046Z,46.76
2018-07-24T08:25:28.613Z,46.97
2018-07-24T08:27:57.112Z,47.21
2018-07-24T08:30:25.635Z,47.39
2018-07-24T08:32:54.377Z,47.61
2018-07-24T08:35:22.900Z,47.82
2018-07-24T08:37:51.381Z,47.97
2018-07-24T08:40:19.857Z,48.22
2018-07-24T08:42:49.269Z,48.31
2018-07-24T08:45:19.504Z,48.13
2018-07-24T08:47:48.040Z,47.99
2018-07-24T08:50:16.596Z,47.73
2018-07-24T08:52:45.183Z,47.74
2018-07-24T08:55:14.206Z,47.87
2018-07-24T08:57:42.479Z,48.22
2018-07-24T09:00:11.014Z,48.35
2018-07-24T09:02:39.580Z,48.15
2018-07-24T09:05:09.231Z,48.20
2018-07-24T09:07:43.485Z,48.43
2018-07-24T09:10:12.289Z,48.86
2018-07-24T09:15:26.274Z,49.65
2018-07-24T09:17:56.028Z,50.07
2018-07-24T09:20:25.517Z,50.36
2018-07-24T09:22:55.682Z,50.48
2018-07-24T09:28:47.972Z,50.64
2018-07-24T09:31:22.178Z,50.67
2018-07-24T09:33:59.949Z,50.98
2018-07-24T09:36:48.306Z,51.43
2018-07-24T09:39:28.204Z,51.70
2018-07-24T09:48:50.860Z,52.03
2018-07-24T09:51:36.117Z,53.40
2018-07-24T09:54:15.593Z,53.63
2018-07-24T09:56:54.871Z,53.84
2018-07-24T10:00:14.395Z,54.02
2018-07-24T10:03:05.345Z,54.40
2018-07-24T10:05:51.993Z,54.64
2018-07-24T10:08:40.934Z,54.95
2018-07-24T10:11:12.793Z,54.58
2018-07-24T10:13:47.219Z,54.16
2018-07-24T10:16:33.565Z,53.89
2018-07-24T10:21:53.055Z,54.47
2018-07-24T10:24:27.281Z,54.82
2018-07-24T10:26:57.258Z,55.04
2018-07-24T10:29:26.995Z,55.45
2018-07-24T10:31:57.477Z,55.59
2018-07-24T10:34:29.601Z,55.92
2018-07-24T10:37:01.505Z,56.40
2018-07-24T10:39:37.578Z,56.83
2018-07-24T10:42:07.286Z,57.08
2018-07-24T10:44:39.678Z,57.47
2018-07-24T10:47:40.464Z,57.90
2018-07-24T10:50:13.217Z,58.38
2018-07-24T10:52:46.106Z,58.62
2018-07-24T10:55:14.662Z,58.62
2018-07-24T10:57:48.077Z,58.01
2018-07-24T11:00:18.372Z,57.63
2018-07-24T11:02:46.957Z,57.86
2018-07-24T11:05:15.672Z,58.29
2018-07-24T11:07:44.314Z,58.65
2018-07-24T11:10:12.911Z,58.94
2018-07-24T11:12:41.528Z,58.38
2018-07-24T11:15:10.058Z,58.20
2018-07-24T11:17:38.598Z,57.76
2018-07-24T11:20:07.099Z,57.43
2018-07-24T11:22:35.907Z,57.18
2018-07-24T11:25:04.394Z,57.08
2018-07-24T11:27:33.077Z,57.09
2018-07-24T11:30:01.567Z,56.90
2018-07-24T11:32:30.825Z,56.55
2018-07-24T11:34:59.759Z,55.87
2018-07-24T11:37:28.922Z,54.87
2018-07-24T11:39:58.017Z,53.67
2018-07-24T11:42:27.284Z,52.06
2018-07-24T11:44:58.162Z,50.51
2018-07-24T11:47:27.104Z,49.31
2018-07-24T11:49:56.138Z,48.45
2018-07-24T11:52:25.099Z,47.64
2018-07-24T11:54:54.282Z,46.56
2018-07-24T11:57:23.305Z,45.64
2018-07-24T11:59:52.632Z,45.05
2018-07-24T12:02:21.569Z,44.57
2018-07-24T12:04:50.957Z,44.28
2018-07-24T12:07:19.756Z,44.02
2018-07-24T12:09:48.390Z,43.67
2018-07-24T12:12:17.040Z,43.50
2018-07-24T12:14:45.753Z,43.41
2018-07-24T12:17:14.275Z,43.32
2018-07-24T12:19:42.848Z,43.22
2018-07-24T12:22:11.460Z,43.04
2018-07-24T12:24:39.975Z,42.63
2018-07-24T12:27:08.672Z,42.22
2018-07-24T12:29:37.320Z,41.70
2018-07-24T12:32:06.035Z,41.57
2018-07-24T12:34:34.675Z,41.37
2018-07-24T12:37:03.285Z,41.25
2018-07-24T12:39:31.916Z,41.18
2018-07-24T12:42:00.554Z,41.20
2018-07-24T12:44:29.208Z,41.26
2018-07-24T12:46:57.698Z,41.26
2018-07-24T12:49:26.414Z,41.07
2018-07-24T12:51:54.980Z,40.90
2018-07-24T12:54:23.641Z,40.92
2018-07-24T12:56:52.097Z,41.02
2018-07-24T12:59:20.523Z,41.15
2018-07-24T13:01:49.084Z,41.26
2018-07-24T13:04:17.847Z,41.32
2018-07-24T13:06:46.427Z,41.32
2018-07-24T13:09:14.925Z,41.37
2018-07-24T13:11:43.399Z,41.30
2018-07-24T13:14:11.978Z,41.27
2018-07-24T13:16:40.513Z,41.27
2018-07-24T13:19:09.037Z,41.18
2018-07-24T13:21:37.510Z,41.01
2018-07-24T13:24:06.096Z,40.86
2018-07-24T13:26:34.536Z,40.77
2018-07-24T13:29:03.028Z,40.67
2018-07-24T13:31:32.220Z,40.66
2018-07-24T13:34:00.846Z,40.76
2018-07-24T13:36:29.380Z,40.84
2018-07-24T13:38:57.965Z,40.91
2018-07-24T13:41:26.459Z,40.90
2018-07-24T13:43:55.138Z,40.85
2018-07-24T13:46:23.955Z,40.83
2018-07-24T13:48:52.569Z,40.79
2018-07-24T13:51:21.194Z,40.76
2018-07-24T13:53:49.953Z,40.73
2018-07-24T13:56:18.620Z,40.69
2018-07-24T13:58:47.373Z,40.73
2018-07-24T14:01:16.005Z,40.74
2018-07-24T14:03:44.712Z,40.73
2018-07-24T14:06:13.568Z,40.66
2018-07-24T14:08:42.357Z,40.57
2018-07-24T14:11:11.082Z,40.58
2018-07-24T14:13:39.765Z,40.66
2018-07-24T14:16:08.259Z,40.77
2018-07-24T14:18:36.846Z,40.86
2018-07-24T14:21:05.362Z,40.82
2018-07-24T14:23:33.806Z,40.65
2018-07-24T14:26:02.341Z,40.51
2018-07-24T14:28:30.886Z,40.45
2018-07-24T14:30:59.496Z,40.47
2018-07-24T14:33:28.216Z,40.56
2018-07-24T14:35:56.689Z,40.47
2018-07-24T14:38:25.303Z,40.32
2018-07-24T14:40:53.772Z,40.29
2018-07-24T14:43:22.363Z,40.27
2018-07-24T14:45:50.886Z,40.17
2018-07-24T14:48:19.705Z,39.98
2018-07-24T14:50:48.235Z,39.80
2018-07-24T14:53:17.143Z,39.72
2018-07-24T14:55:45.657Z,39.66
2018-07-24T14:58:14.497Z,39.65
2018-07-24T15:00:43.050Z,39.67
2018-07-24T15:03:11.667Z,39.66
2018-07-24T15:05:40.284Z,39.50
2018-07-24T15:08:08.881Z,39.41
2018-07-24T15:10:37.588Z,39.42
2018-07-24T15:13:06.509Z,39.44
2018-07-24T15:15:35.029Z,39.42
2018-07-24T15:18:03.671Z,39.39
2018-07-24T15:20:32.261Z,39.37
2018-07-24T15:23:01.091Z,39.30
2018-07-24T15:25:29.808Z,39.21
2018-07-24T15:27:58.369Z,39.08
2018-07-24T15:30:26.938Z,38.30
2018-07-24T15:32:56.673Z,38.90
2018-07-24T15:35:25.350Z,38.84
2018-07-24T15:37:54.072Z,38.80
2018-07-24T15:40:22.859Z,38.73
2018-07-24T15:42:51.525Z,38.76
2018-07-24T15:45:20.502Z,38.78
2018-07-24T15:47:49.312Z,38.79
2018-07-24T15:50:19.017Z,38.68
2018-07-24T15:52:47.864Z,38.54
2018-07-24T15:55:16.681Z,38.50
2018-07-24T15:57:45.648Z,38.49
2018-07-24T16:00:14.542Z,38.49
2018-07-24T16:02:43.394Z,38.43
2018-07-24T16:05:12.294Z,38.37
2018-07-24T16:07:41.061Z,38.28
2018-07-24T16:10:09.818Z,38.31
2018-07-24T16:12:38.735Z,38.28
2018-07-24T16:15:07.647Z,38.29
2018-07-24T16:17:36.495Z,38.28
2018-07-24T16:20:05.633Z,38.27
2018-07-24T16:22:34.276Z,38.26
2018-07-24T16:25:03.002Z,38.25
2018-07-24T16:27:31.646Z,38.22
2018-07-24T16:30:00.433Z,38.20
2018-07-24T16:32:29.212Z,38.24
2018-07-24T16:34:57.777Z,38.22
2018-07-24T16:37:26.340Z,38.16
2018-07-24T16:39:55.105Z,38.10
2018-07-24T16:42:23.881Z,38.06
2018-07-24T16:44:52.520Z,38.04
2018-07-24T16:47:21.360Z,38.01
2018-07-24T16:49:49.954Z,37.99
2018-07-24T16:52:18.495Z,37.96
2018-07-24T16:54:47.163Z,37.93
2018-07-24T16:57:15.775Z,37.93
2018-07-24T16:59:44.946Z,37.97
2018-07-24T17:02:13.630Z,37.98
2018-07-24T17:04:42.270Z,38.00
2018-07-24T17:07:10.894Z,37.96
2018-07-24T17:09:39.720Z,37.95
2018-07-24T17:12:08.268Z,37.92
2018-07-24T17:14:37.252Z,37.87
2018-07-24T17:17:05.851Z,37.81
2018-07-24T17:19:36.810Z,37.76
2018-07-24T17:22:05.648Z,37.67
2018-07-24T17:24:34.279Z,37.61
2018-07-24T17:27:02.848Z,37.51
2018-07-24T17:29:31.681Z,37.41
2018-07-24T17:32:00.846Z,37.32
2018-07-24T17:34:29.998Z,37.24
2018-07-24T17:36:58.933Z,37.15
2018-07-24T17:39:27.918Z,37.06
2018-07-24T17:41:59.093Z,36.97
2018-07-24T17:44:28.101Z,36.89
2018-07-24T17:46:56.901Z,36.79
2018-07-24T17:49:25.635Z,36.73
2018-07-24T17:51:54.825Z,36.65
2018-07-24T17:54:23.600Z,36.59
2018-07-24T17:56:52.322Z,36.53
2018-07-24T17:59:21.708Z,36.48
2018-07-24T18:01:50.483Z,36.41
2018-07-24T18:04:19.108Z,36.35
2018-07-24T18:06:48.170Z,36.32
2018-07-24T18:09:16.970Z,36.28
2018-07-24T18:11:45.881Z,36.22
2018-07-24T18:14:14.542Z,36.19
2018-07-24T18:16:43.486Z,36.17
2018-07-24T18:19:12.256Z,36.17
2018-07-24T18:21:41.073Z,36.15
2018-07-24T18:24:09.901Z,36.12
2018-07-24T18:26:38.780Z,36.10
2018-07-24T18:29:07.547Z,36.08
2018-07-24T18:31:36.840Z,36.05
2018-07-24T18:34:05.715Z,36.02
2018-07-24T18:36:34.769Z,36.02
2018-07-24T18:39:03.650Z,36.01
2018-07-24T18:41:32.567Z,35.98
2018-07-24T18:44:01.469Z,35.97
2018-07-24T18:46:30.198Z,35.93
2018-07-24T18:48:58.944Z,35.90
2018-07-24T18:51:28.013Z,35.85
2018-07-24T18:53:57.185Z,35.80
2018-07-24T18:56:25.889Z,35.74
2018-07-24T18:58:54.589Z,35.68
2018-07-24T19:01:23.239Z,35.59
2018-07-24T19:03:51.882Z,35.49
2018-07-24T19:06:20.576Z,35.41
2018-07-24T19:08:49.289Z,35.32
2018-07-24T19:11:18.042Z,35.26
2018-07-24T19:13:46.671Z,35.17
2018-07-24T19:16:15.778Z,35.09
2018-07-24T19:18:44.333Z,35.02
2018-07-24T19:21:13.706Z,34.94
2018-07-24T19:23:42.441Z,34.83
2018-07-24T19:26:11.242Z,34.76
2018-07-24T19:28:39.837Z,34.68
2018-07-24T19:31:08.466Z,34.61
2018-07-24T19:33:37.067Z,34.52
2018-07-24T19:36:05.687Z,34.42
2018-07-24T19:38:34.156Z,34.32
2018-07-24T19:41:02.799Z,34.23
2018-07-24T19:43:31.364Z,34.12
2018-07-24T19:45:59.984Z,34.03
2018-07-24T19:48:28.652Z,33.92
2018-07-24T19:50:57.200Z,33.78
2018-07-24T19:53:25.781Z,33.68
2018-07-24T19:55:54.404Z,33.58
2018-07-24T19:58:22.827Z,33.41
2018-07-24T20:00:51.342Z,33.27
2018-07-24T20:03:20.047Z,33.16
2018-07-24T20:05:48.769Z,33.07
2018-07-24T20:08:17.316Z,33.00
2018-07-24T20:10:46.020Z,32.93
2018-07-24T20:13:14.607Z,32.83
2018-07-24T20:15:43.399Z,32.76
2018-07-24T20:18:11.952Z,32.71
2018-07-24T20:20:40.544Z,32.64
2018-07-24T20:23:09.175Z,32.58
2018-07-24T20:25:38.065Z,32.51
2018-07-24T20:28:06.659Z,32.46
2018-07-24T20:30:35.355Z,32.43
2018-07-24T20:33:04.270Z,32.36
2018-07-24T20:35:32.973Z,32.30
2018-07-24T20:38:01.509Z,32.24
2018-07-24T20:40:30.080Z,32.19
2018-07-24T20:42:58.772Z,32.12
2018-07-24T20:45:27.504Z,32.07
2018-07-24T20:47:56.289Z,32.00
2018-07-24T20:50:24.918Z,31.94
2018-07-24T20:52:53.615Z,31.88
2018-07-24T20:55:22.287Z,31.81
2018-07-24T20:57:51.107Z,31.75
2018-07-24T21:00:20.340Z,31.69
2018-07-24T21:02:49.096Z,31.64
2018-07-24T21:05:18.007Z,31.58
2018-07-24T21:07:46.791Z,31.52
2018-07-24T21:10:18.469Z,31.44
2018-07-24T21:12:48.131Z,31.40
2018-07-24T21:15:17.562Z,31.36
2018-07-24T21:17:46.316Z,31.29
2018-07-24T21:20:14.917Z,31.26
2018-07-24T21:22:43.659Z,31.22
2018-07-24T21:25:12.376Z,31.20
2018-07-24T21:27:41.031Z,31.16
2018-07-24T21:30:10.344Z,31.11
2018-07-24T21:32:39.012Z,31.07
2018-07-24T21:35:07.661Z,31.03
2018-07-24T21:37:36.299Z,30.99
2018-07-24T21:40:05.120Z,30.98
2018-07-24T21:42:33.762Z,30.98
2018-07-24T21:45:02.336Z,30.98
2018-07-24T21:47:30.914Z,30.99
2018-07-24T21:49:59.538Z,31.00
2018-07-24T21:52:28.079Z,30.99
2018-07-24T21:54:56.681Z,30.99
2018-07-24T21:57:25.240Z,31.02
2018-07-24T21:59:53.840Z,31.03
2018-07-24T22:02:22.446Z,31.04
2018-07-24T22:04:50.955Z,31.04
2018-07-24T22:07:19.568Z,30.99
2018-07-24T22:09:48.140Z,30.96
2018-07-24T22:12:16.783Z,30.90
2018-07-24T22:14:45.297Z,30.82
2018-07-24T22:17:13.852Z,30.78
2018-07-24T22:19:42.428Z,30.75
2018-07-24T22:22:10.999Z,30.75
2018-07-24T22:24:39.560Z,30.74
2018-07-24T22:27:08.063Z,30.72
2018-07-24T22:29:36.589Z,30.72
2018-07-24T22:32:05.164Z,30.71
2018-07-24T22:34:33.739Z,30.67
2018-07-24T22:37:02.356Z,30.66
2018-07-24T22:39:30.855Z,30.63
2018-07-24T22:41:59.423Z,30.63
2018-07-24T22:44:27.975Z,30.59
2018-07-24T22:46:56.534Z,30.55
2018-07-24T22:49:25.364Z,30.49
2018-07-24T22:51:53.883Z,30.44
2018-07-24T22:54:22.397Z,30.40
2018-07-24T22:56:50.966Z,30.37
2018-07-24T22:59:19.548Z,30.32
2018-07-24T23:01:48.070Z,30.27
2018-07-24T23:04:16.602Z,30.23
2018-07-24T23:06:45.171Z,30.16
2018-07-24T23:09:13.738Z,30.11
2018-07-24T23:11:42.255Z,30.05
2018-07-24T23:14:10.869Z,29.99
2018-07-24T23:16:39.455Z,29.93
2018-07-24T23:19:07.980Z,29.88
2018-07-24T23:21:36.602Z,29.82
2018-07-24T23:24:05.258Z,29.75
2018-07-24T23:26:33.823Z,29.70
2018-07-24T23:29:02.531Z,29.66
2018-07-24T23:31:31.118Z,29.62
2018-07-24T23:33:59.658Z,29.59
2018-07-24T23:36:28.261Z,29.54
2018-07-24T23:38:56.809Z,29.49
2018-07-24T23:41:25.337Z,29.43
2018-07-24T23:43:53.860Z,29.39
2018-07-24T23:46:22.390Z,29.35
2018-07-24T23:48:50.924Z,29.32
2018-07-24T23:51:19.428Z,29.28
2018-07-24T23:53:47.976Z,29.24
2018-07-24T23:56:16.563Z,29.21
2018-07-24T23:58:45.089Z,29.19
